NOZ3ZM ESGG-ENBR
Flight info
| Callsign | NOZ3ZM |
|---|---|
| Flight time | 0h 53m |
| Altitude | 36000 |
| Route | DETNA DCT ARTOR DCT TITUX DCT PESUR |
| Aircraft | B738/M-SDE2E3FGHIRWXY/LB1 |
Departure
| Time | 2026-04-30 06:26 |
|---|---|
| Airport | Göteborg Landvetter Airport (ESGG) |
Arrival
| Time | 2026-04-30 07:20 |
|---|---|
| Airport | Bergen Airport, Flesland (ENBR) |
| Time | Latitude | Longitude | Altitude | Speed | Heading |
|---|---|---|---|---|---|
| 2026-04-30 06:13 | 57.66853 | 12.29375 | 526 ft | 0 kts | 114° |
| 2026-04-30 06:20 | 57.66859 | 12.29345 | 526 ft | 4 kts | 107° |
| 2026-04-30 06:20 | 57.66864 | 12.29297 | 526 ft | 4 kts | 89° |
| 2026-04-30 06:20 | 57.66859 | 12.29251 | 526 ft | 4 kts | 51° |
| 2026-04-30 06:21 | 57.66848 | 12.29233 | 526 ft | 1 kts | 26° |
| 2026-04-30 06:21 | 57.66847 | 12.29231 | 526 ft | 0 kts | 26° |
| 2026-04-30 06:23 | 57.66847 | 12.29232 | 526 ft | 1 kts | 26° |
| 2026-04-30 06:23 | 57.66877 | 12.29259 | 526 ft | 10 kts | 26° |
| 2026-04-30 06:23 | 57.66957 | 12.29313 | 527 ft | 13 kts | 355° |
| 2026-04-30 06:23 | 57.67011 | 12.29190 | 527 ft | 13 kts | 297° |
| 2026-04-30 06:24 | 57.67060 | 12.29061 | 528 ft | 12 kts | 340° |
| 2026-04-30 06:24 | 57.67144 | 12.29109 | 528 ft | 14 kts | 26° |
| 2026-04-30 06:24 | 57.67253 | 12.29207 | 529 ft | 21 kts | 26° |
| 2026-04-30 06:24 | 57.67386 | 12.29331 | 531 ft | 21 kts | 26° |
| 2026-04-30 06:25 | 57.67506 | 12.29438 | 532 ft | 15 kts | 26° |
| 2026-04-30 06:25 | 57.67581 | 12.29421 | 532 ft | 12 kts | 302° |
| 2026-04-30 06:25 | 57.67586 | 12.29270 | 532 ft | 12 kts | 264° |
| 2026-04-30 06:25 | 57.67545 | 12.29136 | 531 ft | 15 kts | 218° |
| 2026-04-30 06:26 | 57.67346 | 12.28943 | 529 ft | 65 kts | 206° |
| 2026-04-30 06:26 | 57.66719 | 12.28373 | 523 ft | 132 kts | 206° |
| 2026-04-30 06:26 | 57.65759 | 12.27508 | 831 ft | 159 kts | 207° |
| 2026-04-30 06:26 | 57.64780 | 12.26630 | 1793 ft | 155 kts | 210° |
| 2026-04-30 06:27 | 57.63769 | 12.25729 | 2449 ft | 168 kts | 211° |
| 2026-04-30 06:27 | 57.62696 | 12.24739 | 3096 ft | 181 kts | 210° |
| 2026-04-30 06:27 | 57.61505 | 12.23610 | 3646 ft | 203 kts | 210° |
| 2026-04-30 06:27 | 57.60185 | 12.22338 | 4124 ft | 222 kts | 210° |
| 2026-04-30 06:28 | 57.58754 | 12.21003 | 4572 ft | 242 kts | 209° |
| 2026-04-30 06:28 | 57.57120 | 12.19426 | 4614 ft | 284 kts | 214° |
| 2026-04-30 06:28 | 57.55759 | 12.16783 | 5435 ft | 287 kts | 246° |
| 2026-04-30 06:28 | 57.55300 | 12.13240 | 6527 ft | 280 kts | 272° |
| 2026-04-30 06:29 | 57.55367 | 12.09646 | 7665 ft | 275 kts | 277° |
| 2026-04-30 06:29 | 57.55490 | 12.06121 | 8653 ft | 279 kts | 277° |
| 2026-04-30 06:29 | 57.55630 | 12.02423 | 9412 ft | 291 kts | 278° |
| 2026-04-30 06:29 | 57.55775 | 11.98647 | 10381 ft | 293 kts | 278° |
| 2026-04-30 06:30 | 57.55920 | 11.94840 | 11283 ft | 298 kts | 278° |
| 2026-04-30 06:30 | 57.56070 | 11.90862 | 11773 ft | 318 kts | 278° |
| 2026-04-30 06:30 | 57.56239 | 11.86579 | 12015 ft | 344 kts | 278° |
| 2026-04-30 06:30 | 57.56402 | 11.82068 | 12721 ft | 352 kts | 278° |
| 2026-04-30 06:31 | 57.56554 | 11.77494 | 13615 ft | 355 kts | 278° |
| 2026-04-30 06:31 | 57.56706 | 11.72868 | 14434 ft | 361 kts | 278° |
| 2026-04-30 06:31 | 57.56913 | 11.68189 | 15164 ft | 362 kts | 285° |
| 2026-04-30 06:31 | 57.57734 | 11.63819 | 15905 ft | 356 kts | 305° |
| 2026-04-30 06:32 | 57.59217 | 11.60262 | 16694 ft | 351 kts | 319° |
| 2026-04-30 06:32 | 57.60947 | 11.57014 | 17442 ft | 355 kts | 319° |
| 2026-04-30 06:32 | 57.62704 | 11.53737 | 18155 ft | 360 kts | 319° |
| 2026-04-30 06:32 | 57.64484 | 11.50404 | 18874 ft | 364 kts | 319° |
| 2026-04-30 06:33 | 57.66276 | 11.47027 | 19552 ft | 367 kts | 319° |
| 2026-04-30 06:33 | 57.68068 | 11.43624 | 20265 ft | 368 kts | 319° |
| 2026-04-30 06:33 | 57.69867 | 11.40193 | 20987 ft | 369 kts | 319° |
| 2026-04-30 06:33 | 57.71666 | 11.36748 | 21677 ft | 371 kts | 318° |
| 2026-04-30 06:34 | 57.73476 | 11.33272 | 22305 ft | 375 kts | 318° |
| 2026-04-30 06:34 | 57.75300 | 11.29762 | 22934 ft | 378 kts | 318° |
| 2026-04-30 06:34 | 57.77113 | 11.26264 | 23555 ft | 380 kts | 318° |
| 2026-04-30 06:34 | 57.78963 | 11.22691 | 24128 ft | 384 kts | 318° |
| 2026-04-30 06:35 | 57.80827 | 11.19083 | 24604 ft | 387 kts | 318° |
| 2026-04-30 06:35 | 57.82710 | 11.15433 | 25105 ft | 390 kts | 317° |
| 2026-04-30 06:35 | 57.84600 | 11.11763 | 25583 ft | 392 kts | 317° |
| 2026-04-30 06:35 | 57.86498 | 11.08072 | 26069 ft | 395 kts | 317° |
| 2026-04-30 06:36 | 57.88415 | 11.04336 | 26538 ft | 397 kts | 317° |
| 2026-04-30 06:36 | 57.90344 | 11.00571 | 26940 ft | 401 kts | 317° |
| 2026-04-30 06:36 | 57.92297 | 10.96754 | 27332 ft | 405 kts | 317° |
| 2026-04-30 06:36 | 57.94233 | 10.92965 | 27776 ft | 407 kts | 316° |
| 2026-04-30 06:37 | 57.96200 | 10.89108 | 28238 ft | 409 kts | 316° |
| 2026-04-30 06:37 | 57.98157 | 10.85183 | 28659 ft | 412 kts | 316° |
| 2026-04-30 06:37 | 58.00135 | 10.81249 | 29061 ft | 414 kts | 316° |
| 2026-04-30 06:37 | 58.01460 | 10.78655 | 29330 ft | 416 kts | 316° |
| 2026-04-30 06:38 | 58.03478 | 10.74712 | 29734 ft | 418 kts | 316° |
| 2026-04-30 06:38 | 58.05500 | 10.70748 | 30144 ft | 420 kts | 316° |
| 2026-04-30 06:38 | 58.07523 | 10.66762 | 30629 ft | 419 kts | 316° |
| 2026-04-30 06:38 | 58.09537 | 10.62776 | 31114 ft | 417 kts | 316° |
| 2026-04-30 06:39 | 58.11536 | 10.58806 | 31547 ft | 416 kts | 316° |
| 2026-04-30 06:39 | 58.13536 | 10.54827 | 31927 ft | 417 kts | 316° |
| 2026-04-30 06:39 | 58.15539 | 10.50833 | 32294 ft | 417 kts | 315° |
| 2026-04-30 06:39 | 58.17508 | 10.46898 | 32650 ft | 418 kts | 315° |
| 2026-04-30 06:40 | 58.19512 | 10.42888 | 33028 ft | 418 kts | 315° |
| 2026-04-30 06:40 | 58.21508 | 10.38887 | 33464 ft | 416 kts | 315° |
| 2026-04-30 06:40 | 58.23496 | 10.34895 | 33899 ft | 415 kts | 315° |
| 2026-04-30 06:40 | 58.25477 | 10.30910 | 34296 ft | 415 kts | 315° |
| 2026-04-30 06:41 | 58.27459 | 10.26915 | 34625 ft | 415 kts | 315° |
| 2026-04-30 06:41 | 58.29441 | 10.22917 | 34941 ft | 415 kts | 315° |
| 2026-04-30 06:41 | 58.31418 | 10.18921 | 35275 ft | 414 kts | 315° |
| 2026-04-30 06:41 | 58.33372 | 10.14993 | 35595 ft | 414 kts | 316° |
| 2026-04-30 06:42 | 58.35494 | 10.11296 | 35887 ft | 413 kts | 321° |
| 2026-04-30 06:42 | 58.37693 | 10.07801 | 36193 ft | 412 kts | 322° |
| 2026-04-30 06:42 | 58.39924 | 10.04343 | 36441 ft | 413 kts | 322° |
| 2026-04-30 06:43 | 58.44437 | 9.97331 | 36412 ft | 419 kts | 321° |
| 2026-04-30 06:43 | 58.48913 | 9.90259 | 36416 ft | 413 kts | 321° |
| 2026-04-30 06:44 | 58.53287 | 9.83271 | 36432 ft | 412 kts | 321° |
| 2026-04-30 06:44 | 58.57675 | 9.76223 | 36429 ft | 412 kts | 321° |
| 2026-04-30 06:45 | 58.62063 | 9.69152 | 36425 ft | 412 kts | 321° |
| 2026-04-30 06:45 | 58.66451 | 9.62057 | 36428 ft | 412 kts | 321° |
| 2026-04-30 06:46 | 58.70846 | 9.54926 | 36429 ft | 413 kts | 321° |
| 2026-04-30 06:46 | 58.75243 | 9.47768 | 36412 ft | 414 kts | 320° |
| 2026-04-30 06:47 | 58.79610 | 9.40628 | 36422 ft | 414 kts | 320° |
| 2026-04-30 06:47 | 58.84009 | 9.33422 | 36424 ft | 415 kts | 320° |
| 2026-04-30 06:48 | 58.88409 | 9.26186 | 36426 ft | 416 kts | 320° |
| 2026-04-30 06:48 | 58.92812 | 9.18918 | 36425 ft | 416 kts | 320° |
| 2026-04-30 06:49 | 58.97219 | 9.11618 | 36421 ft | 417 kts | 320° |
| 2026-04-30 06:49 | 59.01630 | 9.04289 | 36432 ft | 417 kts | 320° |
| 2026-04-30 06:50 | 59.05978 | 8.96822 | 36418 ft | 417 kts | 317° |
| 2026-04-30 06:50 | 59.10119 | 8.88903 | 36416 ft | 417 kts | 315° |
| 2026-04-30 06:51 | 59.14199 | 8.80953 | 36424 ft | 417 kts | 315° |
| 2026-04-30 06:51 | 59.18305 | 8.72985 | 36426 ft | 416 kts | 315° |
| 2026-04-30 06:52 | 59.22414 | 8.65027 | 36414 ft | 416 kts | 315° |
| 2026-04-30 06:52 | 59.26518 | 8.57068 | 36414 ft | 415 kts | 315° |
| 2026-04-30 06:53 | 59.30616 | 8.49094 | 36415 ft | 415 kts | 315° |
| 2026-04-30 06:53 | 59.34690 | 8.41140 | 36014 ft | 420 kts | 315° |
| 2026-04-30 06:53 | 59.36738 | 8.37128 | 35670 ft | 413 kts | 315° |
| 2026-04-30 06:54 | 59.38758 | 8.33166 | 35242 ft | 410 kts | 315° |
| 2026-04-30 06:54 | 59.40767 | 8.29217 | 34834 ft | 406 kts | 315° |
| 2026-04-30 06:54 | 59.42753 | 8.25306 | 34426 ft | 402 kts | 315° |
| 2026-04-30 06:54 | 59.44716 | 8.21434 | 33960 ft | 398 kts | 315° |
| 2026-04-30 06:55 | 59.46662 | 8.17589 | 33562 ft | 394 kts | 315° |
| 2026-04-30 06:55 | 59.48592 | 8.13770 | 33141 ft | 390 kts | 315° |
| 2026-04-30 06:55 | 59.50494 | 8.09998 | 32757 ft | 386 kts | 315° |
| 2026-04-30 06:55 | 59.52350 | 8.06312 | 32375 ft | 383 kts | 315° |
| 2026-04-30 06:56 | 59.54216 | 8.02601 | 31996 ft | 379 kts | 315° |
| 2026-04-30 06:56 | 59.56061 | 7.98924 | 31602 ft | 376 kts | 314° |
| 2026-04-30 06:56 | 59.57898 | 7.95259 | 31223 ft | 373 kts | 314° |
| 2026-04-30 06:56 | 59.59717 | 7.91621 | 30863 ft | 370 kts | 314° |
| 2026-04-30 06:57 | 59.61518 | 7.88015 | 30482 ft | 367 kts | 314° |
| 2026-04-30 06:57 | 59.63304 | 7.84432 | 30075 ft | 364 kts | 314° |
| 2026-04-30 06:57 | 59.65068 | 7.80889 | 29703 ft | 360 kts | 314° |
| 2026-04-30 06:57 | 59.66812 | 7.77382 | 29323 ft | 356 kts | 314° |
| 2026-04-30 06:58 | 59.68537 | 7.73906 | 28935 ft | 352 kts | 314° |
| 2026-04-30 06:58 | 59.70256 | 7.70436 | 28553 ft | 358 kts | 314° |
| 2026-04-30 06:58 | 59.72053 | 7.66801 | 28204 ft | 381 kts | 314° |
| 2026-04-30 06:58 | 59.73971 | 7.62915 | 27764 ft | 405 kts | 314° |
| 2026-04-30 06:59 | 59.75989 | 7.58819 | 27317 ft | 420 kts | 314° |
| 2026-04-30 06:59 | 59.78000 | 7.54733 | 26847 ft | 419 kts | 314° |
| 2026-04-30 06:59 | 59.80027 | 7.50607 | 26382 ft | 416 kts | 314° |
| 2026-04-30 06:59 | 59.82042 | 7.46499 | 25936 ft | 413 kts | 314° |
| 2026-04-30 07:00 | 59.84041 | 7.42416 | 25491 ft | 411 kts | 314° |
| 2026-04-30 07:00 | 59.86025 | 7.38354 | 25050 ft | 409 kts | 314° |
| 2026-04-30 07:00 | 59.88005 | 7.34292 | 24614 ft | 407 kts | 313° |
| 2026-04-30 07:00 | 59.89972 | 7.30250 | 24181 ft | 405 kts | 313° |
| 2026-04-30 07:01 | 59.91935 | 7.26208 | 23680 ft | 404 kts | 313° |
| 2026-04-30 07:01 | 59.93880 | 7.22194 | 23184 ft | 399 kts | 313° |
| 2026-04-30 07:01 | 59.95774 | 7.18281 | 22773 ft | 397 kts | 313° |
| 2026-04-30 07:01 | 59.97697 | 7.14303 | 22294 ft | 397 kts | 313° |
| 2026-04-30 07:02 | 59.99608 | 7.10341 | 21866 ft | 394 kts | 313° |
| 2026-04-30 07:02 | 60.01501 | 7.06411 | 21429 ft | 391 kts | 313° |
| 2026-04-30 07:02 | 60.03383 | 7.02495 | 21006 ft | 388 kts | 313° |
| 2026-04-30 07:02 | 60.05249 | 6.98608 | 20568 ft | 386 kts | 313° |
| 2026-04-30 07:03 | 60.07106 | 6.94728 | 20155 ft | 385 kts | 313° |
| 2026-04-30 07:03 | 60.08959 | 6.90854 | 19713 ft | 384 kts | 313° |
| 2026-04-30 07:03 | 60.10805 | 6.86985 | 19292 ft | 384 kts | 313° |
| 2026-04-30 07:03 | 60.12647 | 6.83118 | 18869 ft | 383 kts | 313° |
| 2026-04-30 07:04 | 60.14483 | 6.79259 | 18409 ft | 380 kts | 313° |
| 2026-04-30 07:04 | 60.16271 | 6.75492 | 17955 ft | 373 kts | 313° |
| 2026-04-30 07:04 | 60.18047 | 6.71747 | 17530 ft | 366 kts | 312° |
| 2026-04-30 07:04 | 60.19788 | 6.68070 | 17128 ft | 359 kts | 312° |
| 2026-04-30 07:05 | 60.23184 | 6.60879 | 16329 ft | 348 kts | 311° |
| 2026-04-30 07:05 | 60.24699 | 6.57207 | 15922 ft | 342 kts | 298° |
| 2026-04-30 07:05 | 60.25759 | 6.52978 | 15577 ft | 336 kts | 295° |
| 2026-04-30 07:06 | 60.26764 | 6.48752 | 15186 ft | 332 kts | 294° |
| 2026-04-30 07:06 | 60.27760 | 6.44573 | 14821 ft | 329 kts | 294° |
| 2026-04-30 07:06 | 60.28753 | 6.40442 | 14456 ft | 326 kts | 295° |
| 2026-04-30 07:06 | 60.29741 | 6.36355 | 14081 ft | 323 kts | 295° |
| 2026-04-30 07:07 | 60.30722 | 6.32312 | 13698 ft | 320 kts | 295° |
| 2026-04-30 07:07 | 60.31699 | 6.28292 | 13328 ft | 316 kts | 294° |
| 2026-04-30 07:07 | 60.32660 | 6.24336 | 12981 ft | 311 kts | 294° |
| 2026-04-30 07:07 | 60.33607 | 6.20438 | 12626 ft | 307 kts | 294° |
| 2026-04-30 07:08 | 60.34540 | 6.16585 | 12279 ft | 303 kts | 294° |
| 2026-04-30 07:08 | 60.35459 | 6.12798 | 11985 ft | 296 kts | 294° |
| 2026-04-30 07:08 | 60.36354 | 6.09074 | 11640 ft | 293 kts | 294° |
| 2026-04-30 07:08 | 60.37239 | 6.05385 | 11309 ft | 291 kts | 294° |
| 2026-04-30 07:09 | 60.38115 | 6.01723 | 10982 ft | 288 kts | 294° |
| 2026-04-30 07:09 | 60.38985 | 5.98086 | 10686 ft | 285 kts | 293° |
| 2026-04-30 07:09 | 60.39833 | 5.94540 | 10570 ft | 276 kts | 293° |
| 2026-04-30 07:09 | 60.40657 | 5.91089 | 10422 ft | 270 kts | 293° |
| 2026-04-30 07:10 | 60.41470 | 5.87670 | 10109 ft | 270 kts | 293° |
| 2026-04-30 07:10 | 60.42281 | 5.84254 | 9793 ft | 269 kts | 293° |
| 2026-04-30 07:10 | 60.43088 | 5.80852 | 9470 ft | 267 kts | 293° |
| 2026-04-30 07:10 | 60.43830 | 5.77449 | 9236 ft | 261 kts | 287° |
| 2026-04-30 07:11 | 60.44360 | 5.73962 | 8707 ft | 263 kts | 284° |
| 2026-04-30 07:11 | 60.44843 | 5.70404 | 8194 ft | 261 kts | 283° |
| 2026-04-30 07:11 | 60.45322 | 5.66871 | 7704 ft | 258 kts | 283° |
| 2026-04-30 07:11 | 60.45802 | 5.63388 | 7208 ft | 257 kts | 284° |
| 2026-04-30 07:12 | 60.46289 | 5.59896 | 6656 ft | 257 kts | 284° |
| 2026-04-30 07:12 | 60.46776 | 5.56436 | 6158 ft | 252 kts | 284° |
| 2026-04-30 07:12 | 60.47242 | 5.53160 | 5990 ft | 231 kts | 284° |
| 2026-04-30 07:12 | 60.47672 | 5.50146 | 5804 ft | 214 kts | 285° |
| 2026-04-30 07:13 | 60.48082 | 5.47282 | 5399 ft | 211 kts | 284° |
| 2026-04-30 07:13 | 60.48489 | 5.44418 | 4947 ft | 211 kts | 285° |
| 2026-04-30 07:13 | 60.48886 | 5.41621 | 4684 ft | 204 kts | 285° |
| 2026-04-30 07:13 | 60.49274 | 5.38889 | 4585 ft | 200 kts | 284° |
| 2026-04-30 07:14 | 60.49660 | 5.36161 | 4496 ft | 204 kts | 284° |
| 2026-04-30 07:14 | 60.50057 | 5.33358 | 4424 ft | 208 kts | 284° |
| 2026-04-30 07:14 | 60.50458 | 5.30525 | 4331 ft | 209 kts | 284° |
| 2026-04-30 07:14 | 60.50599 | 5.27644 | 4205 ft | 206 kts | 255° |
| 2026-04-30 07:15 | 60.49981 | 5.25036 | 4042 ft | 206 kts | 239° |
| 2026-04-30 07:15 | 60.49265 | 5.22490 | 3826 ft | 209 kts | 239° |
| 2026-04-30 07:15 | 60.48546 | 5.19915 | 3585 ft | 209 kts | 239° |
| 2026-04-30 07:15 | 60.47798 | 5.17479 | 3343 ft | 203 kts | 227° |
| 2026-04-30 07:16 | 60.46582 | 5.16268 | 3131 ft | 191 kts | 181° |
| 2026-04-30 07:16 | 60.45315 | 5.16568 | 3044 ft | 183 kts | 173° |
| 2026-04-30 07:16 | 60.44045 | 5.16903 | 2957 ft | 186 kts | 172° |
| 2026-04-30 07:16 | 60.42750 | 5.17306 | 2712 ft | 187 kts | 171° |
| 2026-04-30 07:17 | 60.41478 | 5.17731 | 2462 ft | 184 kts | 171° |
| 2026-04-30 07:17 | 60.40250 | 5.18144 | 2222 ft | 174 kts | 171° |
| 2026-04-30 07:17 | 60.38020 | 5.18895 | 1765 ft | 152 kts | 171° |
| 2026-04-30 07:18 | 60.37010 | 5.19234 | 1571 ft | 147 kts | 171° |
| 2026-04-30 07:18 | 60.36013 | 5.19570 | 1376 ft | 145 kts | 171° |
| 2026-04-30 07:18 | 60.35011 | 5.19906 | 1171 ft | 146 kts | 171° |
| 2026-04-30 07:18 | 60.34019 | 5.20240 | 961 ft | 144 kts | 171° |
| 2026-04-30 07:19 | 60.33043 | 5.20568 | 765 ft | 143 kts | 170° |
| 2026-04-30 07:19 | 60.32064 | 5.20897 | 559 ft | 142 kts | 170° |
| 2026-04-30 07:19 | 60.31100 | 5.21221 | 371 ft | 139 kts | 170° |
| 2026-04-30 07:19 | 60.30136 | 5.21546 | 193 ft | 141 kts | 170° |
| 2026-04-30 07:20 | 60.29227 | 5.21855 | 152 ft | 117 kts | 171° |
| 2026-04-30 07:20 | 60.28870 | 5.21974 | 149 ft | 40 kts | 169° |